Time;durP1;ratioP1;P1;durP2;ratioP2;P2;SDS_P1;SDS_P2;PMS_P1;PMS_P2;Temp;Humidity;BMP_temperature;BMP_pressure;BME280_temperature;BME280_humidity;BME280_pressure;Samples;Min_cycle;Max_cycle;Signal;HPM_P1;HPM_P2
2020/12/06 00:01:42;;;;;;;21.50;18.63;;;5.80;44.10;;;;;;10416390;28;22508;-77
2020/12/06 00:06:45;;;;;;;20.07;17.33;;;5.90;44.00;;;;;;10401460;28;20230;-77
2020/12/06 00:11:48;;;;;;;17.60;15.73;;;5.90;44.00;;;;;;10403522;28;20221;-76
2020/12/06 00:16:50;;;;;;;17.77;15.97;;;5.90;44.10;;;;;;10401717;28;20312;-76
2020/12/06 00:21:52;;;;;;;22.00;18.67;;;5.90;44.00;;;;;;10402837;28;20585;-76
2020/12/06 00:26:58;;;;;;;21.93;18.63;;;5.90;43.70;;;;;;10403868;28;20221;-76
2020/12/06 00:32:00;;;;;;;20.90;18.47;;;5.80;44.20;;;;;;10414758;28;20464;-76
2020/12/06 00:37:02;;;;;;;21.07;18.57;;;5.80;44.00;;;;;;10408080;28;20217;-75
2020/12/06 00:42:05;;;;;;;17.73;15.87;;;5.80;44.00;;;;;;10407057;28;20602;-75
2020/12/06 00:47:08;;;;;;;19.77;16.47;;;5.80;44.10;;;;;;10408279;28;20697;-75
2020/12/06 00:52:10;;;;;;;20.27;16.70;;;5.80;44.00;;;;;;10404690;28;20230;-76
2020/12/06 00:57:13;;;;;;;22.53;17.10;;;5.80;43.90;;;;;;10406009;28;20237;-76
2020/12/06 01:02:16;;;;;;;18.97;16.57;;;5.80;44.10;;;;;;10421865;28;20237;-76
2020/12/06 01:07:18;;;;;;;19.40;17.17;;;5.80;44.00;;;;;;10413603;28;20242;-76
2020/12/06 01:12:23;;;;;;;20.70;16.93;;;5.80;44.00;;;;;;10418783;28;20232;-76
2020/12/06 01:17:25;;;;;;;18.90;16.47;;;5.80;44.20;;;;;;10398694;28;20456;-75
2020/12/06 01:22:28;;;;;;;19.37;15.30;;;5.80;44.20;;;;;;10407065;28;20229;-76
2020/12/06 01:27:31;;;;;;;19.17;16.43;;;5.90;44.30;;;;;;10399130;28;20606;-76
2020/12/06 01:32:33;;;;;;;18.50;16.17;;;5.90;44.30;;;;;;10407909;28;20236;-69
2020/12/06 01:37:35;;;;;;;17.90;15.40;;;5.90;44.10;;;;;;10404897;28;20263;-69
2020/12/06 01:42:38;;;;;;;17.00;14.57;;;5.90;44.10;;;;;;10414592;28;20221;-69
2020/12/06 01:47:40;;;;;;;15.83;14.17;;;5.90;44.10;;;;;;10403368;28;20617;-69
2020/12/06 01:52:43;;;;;;;18.13;15.67;;;5.90;43.80;;;;;;10409657;28;20228;-69
2020/12/06 01:57:46;;;;;;;17.97;16.03;;;5.90;43.90;;;;;;10385511;23;20719;-67
2020/12/06 02:02:50;;;;;;;18.63;16.20;;;5.90;43.90;;;;;;10367543;28;20700;-67
2020/12/06 02:07:53;;;;;;;18.43;16.00;;;5.90;43.90;;;;;;10342795;28;20228;-67
2020/12/06 02:12:57;;;;;;;19.20;17.13;;;5.80;43.60;;;;;;10297770;28;20247;-67
2020/12/06 02:17:59;;;;;;;19.83;16.80;;;5.80;43.60;;;;;;10303829;28;20306;-67
2020/12/06 02:23:02;;;;;;;18.27;15.90;;;5.60;43.60;;;;;;10296657;28;20237;-69
2020/12/06 02:28:05;;;;;;;18.87;15.23;;;5.50;44.00;;;;;;10298480;28;20223;-69
2020/12/06 02:33:07;;;;;;;17.73;15.83;;;5.50;44.20;;;;;;10298435;28;20224;-67
2020/12/06 02:38:11;;;;;;;18.10;15.90;;;5.50;44.00;;;;;;10297397;28;20265;-67
2020/12/06 02:43:13;;;;;;;17.37;15.43;;;5.40;44.10;;;;;;10296008;28;20228;-70
2020/12/06 02:48:15;;;;;;;17.70;14.90;;;5.40;43.90;;;;;;10295154;28;20231;-69
2020/12/06 02:53:18;;;;;;;17.93;15.77;;;5.50;43.80;;;;;;10296391;28;20242;-67
2020/12/06 02:58:20;;;;;;;19.00;15.63;;;5.50;43.80;;;;;;10298444;28;20239;-69
2020/12/06 03:03:22;;;;;;;17.07;15.27;;;5.50;43.70;;;;;;10310671;28;20254;-67
2020/12/06 03:08:25;;;;;;;17.77;15.27;;;5.40;43.70;;;;;;10301423;28;20223;-70
2020/12/06 03:13:27;;;;;;;18.40;15.53;;;5.40;43.80;;;;;;10292195;28;20223;-70
2020/12/06 03:18:31;;;;;;;16.33;13.97;;;5.40;43.80;;;;;;10289647;28;20228;-70
2020/12/06 03:23:34;;;;;;;16.60;14.87;;;5.40;43.80;;;;;;10302839;28;20588;-70
2020/12/06 03:28:36;;;;;;;17.80;14.73;;;5.40;43.80;;;;;;10299236;28;20234;-70
2020/12/06 03:33:38;;;;;;;17.47;15.17;;;5.40;43.60;;;;;;10296944;28;20415;-70
2020/12/06 03:38:41;;;;;;;17.93;15.10;;;5.40;43.50;;;;;;10303580;28;20228;-72
2020/12/06 03:43:44;;;;;;;17.43;14.60;;;5.40;43.50;;;;;;10304857;28;20223;-72
2020/12/06 03:48:46;;;;;;;16.77;14.93;;;5.40;43.40;;;;;;10300216;28;20230;-72
2020/12/06 03:53:49;;;;;;;18.80;16.10;;;5.40;43.40;;;;;;10295804;28;20251;-72
2020/12/06 03:58:51;;;;;;;17.17;14.23;;;5.30;43.70;;;;;;10301294;28;20224;-72
2020/12/06 04:03:53;;;;;;;17.03;14.63;;;5.30;43.80;;;;;;10294514;28;20232;-72
2020/12/06 04:08:57;;;;;;;17.37;15.27;;;5.30;43.90;;;;;;10290101;28;20629;-72
2020/12/06 04:13:59;;;;;;;15.30;13.60;;;5.30;44.10;;;;;;10298356;28;20223;-72
2020/12/06 04:19:02;;;;;;;18.60;15.90;;;5.30;44.10;;;;;;10292172;28;20251;-71
2020/12/06 04:24:05;;;;;;;16.23;14.30;;;5.30;44.00;;;;;;10293951;28;20843;-71
2020/12/06 04:29:07;;;;;;;17.40;14.57;;;5.30;44.10;;;;;;10303305;28;20242;-71
2020/12/06 04:34:09;;;;;;;15.83;14.13;;;5.30;44.00;;;;;;10290055;28;20321;-70
2020/12/06 04:39:12;;;;;;;16.43;14.73;;;5.40;43.90;;;;;;10291697;28;20246;-69
2020/12/06 04:44:14;;;;;;;16.40;14.70;;;5.40;44.00;;;;;;10299070;28;20231;-72
2020/12/06 04:49:42;;;;;;;16.57;13.53;;;5.40;43.80;;;;;;10292396;28;20583;-69
2020/12/06 04:54:51;;;;;;;14.07;12.50;;;5.30;44.20;;;;;;10302629;28;20322;-71
2020/12/06 05:00:00;;;;;;;16.07;13.63;;;5.30;44.10;;;;;;10291227;28;20235;-72
2020/12/06 05:05:04;;;;;;;15.10;13.13;;;5.30;44.00;;;;;;10327153;28;20702;-69
2020/12/06 05:10:07;;;;;;;13.13;11.73;;;5.30;44.00;;;;;;10299105;28;20223;-69
2020/12/06 05:15:10;;;;;;;18.27;15.47;;;5.30;44.10;;;;;;10298706;28;20231;-71
2020/12/06 05:20:12;;;;;;;16.23;14.50;;;5.30;44.10;;;;;;10295640;28;20318;-71
2020/12/06 05:25:16;;;;;;;16.57;14.57;;;5.30;44.00;;;;;;10313591;28;20219;-69
2020/12/06 05:30:18;;;;;;;16.40;14.00;;;5.30;44.10;;;;;;10304466;28;20223;-71
2020/12/06 05:35:20;;;;;;;19.80;17.10;;;5.30;44.00;;;;;;10301751;28;20222;-72
2020/12/06 05:40:23;;;;;;;21.87;17.57;;;5.30;44.00;;;;;;10294432;28;20227;-69
2020/12/06 05:45:25;;;;;;;19.03;15.10;;;5.30;44.00;;;;;;10297596;28;20602;-69
2020/12/06 05:50:29;;;;;;;17.73;15.83;;;5.30;44.00;;;;;;10295758;28;20237;-71
2020/12/06 05:55:32;;;;;;;16.80;14.63;;;5.30;44.00;;;;;;10298759;28;20595;-69
2020/12/06 06:00:35;;;;;;;19.13;15.60;;;5.20;44.10;;;;;;10287644;28;20246;-72
2020/12/06 06:05:41;;;;;;;17.73;15.30;;;5.20;44.30;;;;;;10296929;28;20224;-71
2020/12/06 06:10:57;;;;;;;15.97;14.27;;;5.20;44.30;;;;;;10283987;28;20227;-68
2020/12/06 06:16:18;;;;;;;18.73;15.33;;;5.10;44.20;;;;;;10287895;28;20227;-72
2020/12/06 06:21:25;;;;;;;16.23;13.87;;;5.00;43.70;;;;;;10290397;28;20322;-69
2020/12/06 06:26:32;;;;;;;18.23;14.80;;;4.90;44.10;;;;;;10299282;28;20719;-71
2020/12/06 06:31:36;;;;;;;17.07;14.53;;;4.90;44.20;;;;;;10300895;28;20243;-68
2020/12/06 06:36:38;;;;;;;17.13;14.20;;;4.90;44.20;;;;;;10291863;28;20231;-71
2020/12/06 06:41:41;;;;;;;15.33;13.50;;;4.90;44.10;;;;;;10308582;28;20234;-68
2020/12/06 06:46:51;;;;;;;17.80;15.60;;;4.90;44.10;;;;;;10292071;28;20608;-68
2020/12/06 06:51:54;;;;;;;19.90;16.93;;;4.90;44.30;;;;;;10311373;28;20226;-72
2020/12/06 06:56:59;;;;;;;21.77;16.97;;;4.90;43.90;;;;;;10304141;28;20323;-71
2020/12/06 07:02:01;;;;;;;20.47;18.27;;;4.80;44.10;;;;;;10290128;28;20240;-71
2020/12/06 07:07:03;;;;;;;23.77;19.97;;;4.80;44.00;;;;;;10294871;28;20232;-72
2020/12/06 07:12:09;;;;;;;21.77;19.17;;;4.80;44.30;;;;;;10292230;28;20595;-72
2020/12/06 07:17:12;;;;;;;23.67;19.87;;;4.80;44.20;;;;;;10293454;28;20228;-68
2020/12/06 07:22:14;;;;;;;18.17;15.83;;;4.70;44.10;;;;;;10291165;28;20606;-69
2020/12/06 07:27:17;;;;;;;20.33;15.83;;;4.80;44.20;;;;;;10297182;28;20228;-68
2020/12/06 07:32:20;;;;;;;22.43;19.50;;;4.80;44.40;;;;;;10293514;28;20231;-69
2020/12/06 07:37:23;;;;;;;16.57;14.80;;;4.80;44.30;;;;;;10292637;28;20228;-69
2020/12/06 07:42:27;;;;;;;17.73;15.37;;;4.90;44.30;;;;;;10303455;28;20227;-69
2020/12/06 07:47:29;;;;;;;17.07;14.83;;;4.80;44.50;;;;;;10299543;28;20332;-69
2020/12/06 07:52:33;;;;;;;18.23;16.27;;;4.80;44.40;;;;;;10288310;28;20588;-69
2020/12/06 07:57:51;;;;;;;18.90;16.90;;;4.80;44.80;;;;;;10300979;28;20227;-72
2020/12/06 08:02:57;;;;;;;19.77;17.50;;;4.90;45.50;;;;;;10288301;28;20268;-72
2020/12/06 08:08:07;;;;;;;20.90;17.97;;;4.80;45.10;;;;;;10307119;28;20261;-73
2020/12/06 08:13:11;;;;;;;23.03;19.53;;;4.80;45.60;;;;;;10291593;28;20256;-72
2020/12/06 08:18:15;;;;;;;23.73;18.80;;;4.80;45.40;;;;;;10289683;28;20250;-69
2020/12/06 08:23:18;;;;;;;23.77;19.17;;;4.80;45.30;;;;;;10292338;28;20231;-69
2020/12/06 08:28:21;;;;;;;23.83;17.73;;;4.80;45.40;;;;;;10298468;28;20327;-72
2020/12/06 08:33:24;;;;;;;24.70;18.77;;;4.80;45.70;;;;;;10291829;28;20308;-69
2020/12/06 08:38:29;;;;;;;21.83;16.87;;;4.80;45.60;;;;;;10286766;28;20723;-69
2020/12/06 08:43:47;;;;;;;26.50;19.43;;;4.90;45.90;;;;;;10290700;28;20227;-69
2020/12/06 08:48:50;;;;;;;25.10;19.37;;;4.90;46.50;;;;;;10300558;28;20318;-69
2020/12/06 08:53:53;;;;;;;26.03;19.93;;;5.00;46.00;;;;;;10296962;28;20220;-68
2020/12/06 08:59:02;;;;;;;27.53;21.93;;;5.10;45.70;;;;;;10294893;28;20715;-72
2020/12/06 09:04:04;;;;;;;24.87;20.33;;;5.10;46.30;;;;;;10291355;28;20687;-68
2020/12/06 09:09:06;;;;;;;26.70;20.73;;;5.20;45.80;;;;;;10293317;28;20224;-69
2020/12/06 09:14:09;;;;;;;23.00;18.63;;;5.20;45.90;;;;;;10293100;28;20238;-71
2020/12/06 09:19:12;;;;;;;21.57;18.37;;;5.20;46.00;;;;;;10290607;28;20227;-68
2020/12/06 09:24:14;;;;;;;23.60;19.57;;;5.30;45.90;;;;;;10293222;28;20227;-71
2020/12/06 09:29:17;;;;;;;21.97;18.60;;;5.30;45.80;;;;;;10291095;28;20231;-72
2020/12/06 09:34:19;;;;;;;25.47;20.10;;;5.40;46.00;;;;;;10293041;28;20316;-71
2020/12/06 09:39:21;;;;;;;22.30;18.67;;;5.40;45.90;;;;;;10288548;28;20598;-72
2020/12/06 09:44:24;;;;;;;22.80;19.83;;;5.40;45.90;;;;;;10291785;28;20227;-68
2020/12/06 09:49:26;;;;;;;24.27;20.67;;;5.50;46.00;;;;;;10284824;28;20250;-69
2020/12/06 09:54:28;;;;;;;27.90;24.03;;;5.50;45.90;;;;;;10298699;28;20222;-72
2020/12/06 09:59:32;;;;;;;21.63;18.23;;;5.60;46.00;;;;;;10297755;28;20234;-72
2020/12/06 10:04:34;;;;;;;23.13;20.00;;;5.70;46.20;;;;;;10305561;28;20249;-71
2020/12/06 10:09:37;;;;;;;24.60;21.10;;;5.80;45.90;;;;;;10294471;28;20608;-69
2020/12/06 10:14:40;;;;;;;24.27;20.07;;;5.90;45.90;;;;;;10313136;28;20673;-71
2020/12/06 10:19:42;;;;;;;24.93;21.43;;;6.00;46.00;;;;;;10312962;28;20220;-68
2020/12/06 10:24:45;;;;;;;26.67;22.83;;;6.00;45.80;;;;;;10300338;28;20224;-71
2020/12/06 10:29:48;;;;;;;24.50;20.07;;;6.10;45.80;;;;;;10305268;28;20228;-69
2020/12/06 10:34:50;;;;;;;25.80;21.03;;;6.10;45.90;;;;;;10291804;28;20703;-71
2020/12/06 10:39:52;;;;;;;25.57;21.27;;;6.10;45.60;;;;;;10293970;28;20238;-71
2020/12/06 10:44:55;;;;;;;26.80;21.70;;;6.20;45.80;;;;;;10295788;28;20257;-68
2020/12/06 10:49:58;;;;;;;27.47;21.70;;;6.20;45.90;;;;;;10292613;28;20314;-71
2020/12/06 10:55:00;;;;;;;28.80;22.47;;;6.30;45.90;;;;;;10300895;28;20636;-68
2020/12/06 11:00:04;;;;;;;28.77;22.80;;;6.30;45.80;;;;;;10290025;28;20232;-68
2020/12/06 11:05:06;;;;;;;29.00;22.40;;;6.30;46.20;;;;;;10302475;28;20238;-71
2020/12/06 11:10:09;;;;;;;29.70;22.17;;;6.40;45.90;;;;;;10289871;28;20238;-71
2020/12/06 11:15:15;;;;;;;25.47;19.80;;;6.50;46.00;;;;;;10297008;28;20727;-68
2020/12/06 11:20:21;;;;;;;24.67;19.40;;;6.50;46.00;;;;;;10293348;28;20237;-69
2020/12/06 11:25:23;;;;;;;30.17;20.80;;;6.60;45.90;;;;;;10301945;28;20239;-69
2020/12/06 11:30:26;;;;;;;29.27;20.80;;;6.60;46.00;;;;;;10295970;28;20227;-69
2020/12/06 11:35:29;;;;;;;27.90;19.50;;;6.80;46.20;;;;;;10294538;28;20608;-69
2020/12/06 11:40:31;;;;;;;27.67;19.77;;;6.90;46.00;;;;;;10286572;28;20238;-70
2020/12/06 11:45:35;;;;;;;24.50;18.00;;;7.00;45.80;;;;;;10286095;28;20228;-69
2020/12/06 11:50:37;;;;;;;25.77;18.40;;;7.00;45.80;;;;;;10288972;28;20227;-70
2020/12/06 11:55:40;;;;;;;24.43;17.63;;;7.10;45.70;;;;;;10294089;28;20227;-70
2020/12/06 12:00:43;;;;;;;27.43;20.23;;;7.10;45.50;;;;;;10280185;28;20241;-70
2020/12/06 12:05:46;;;;;;;25.70;19.17;;;7.10;45.40;;;;;;10304306;28;20227;-71
2020/12/06 12:10:48;;;;;;;25.90;18.30;;;7.10;45.40;;;;;;10297377;28;20583;-77
2020/12/06 12:15:51;;;;;;;29.20;20.40;;;7.10;45.50;;;;;;10299470;28;20226;-71
2020/12/06 12:20:53;;;;;;;28.30;20.30;;;7.10;45.90;;;;;;10296118;28;20761;-71
2020/12/06 12:25:55;;;;;;;26.63;19.80;;;7.20;45.70;;;;;;10297139;28;20231;-71
2020/12/06 12:30:59;;;;;;;27.87;20.50;;;7.20;45.70;;;;;;10296087;28;20600;-75
2020/12/06 12:36:02;;;;;;;24.80;17.57;;;7.20;45.70;;;;;;10301401;28;20224;-71
2020/12/06 12:41:04;;;;;;;23.30;17.53;;;7.30;45.60;;;;;;10293213;28;20602;-75
2020/12/06 12:46:07;;;;;;;26.23;18.27;;;7.30;45.50;;;;;;10328053;28;20227;-75
2020/12/06 12:51:09;;;;;;;27.07;18.30;;;7.30;45.50;;;;;;10304109;28;20903;-71
2020/12/06 12:56:11;;;;;;;23.40;17.57;;;7.40;45.50;;;;;;10303501;28;20234;-78
2020/12/06 13:01:14;;;;;;;23.30;16.87;;;7.40;45.30;;;;;;10292158;28;20235;-72
2020/12/06 13:06:17;;;;;;;23.53;16.20;;;7.40;45.20;;;;;;10311329;28;20226;-72
2020/12/06 13:11:23;;;;;;;20.73;15.23;;;7.40;45.10;;;;;;10307203;28;20222;-72
2020/12/06 13:16:27;;;;;;;21.57;15.27;;;7.40;45.10;;;;;;10313036;28;20231;-76
2020/12/06 13:21:29;;;;;;;19.47;14.13;;;7.40;45.00;;;;;;10300647;28;20231;-78
2020/12/06 13:26:31;;;;;;;21.50;15.00;;;7.40;45.10;;;;;;10305539;28;20247;-71
2020/12/06 13:31:34;;;;;;;21.13;15.73;;;7.40;45.20;;;;;;10306390;28;20322;-71
2020/12/06 13:36:37;;;;;;;19.77;14.57;;;7.40;45.30;;;;;;10308599;28;20785;-77
2020/12/06 13:41:39;;;;;;;20.87;14.43;;;7.40;45.20;;;;;;10314065;28;20241;-78
2020/12/06 13:46:49;;;;;;;23.80;15.87;;;7.40;45.10;;;;;;10311084;28;20226;-70
2020/12/06 13:51:51;;;;;;;17.13;12.23;;;7.40;45.20;;;;;;10316535;28;20222;-71
2020/12/06 13:56:54;;;;;;;22.13;15.47;;;7.40;45.10;;;;;;10327492;23;20222;-76
2020/12/06 14:01:57;;;;;;;24.03;15.70;;;7.40;45.10;;;;;;10378177;23;20236;-72
2020/12/06 14:06:59;;;;;;;24.97;19.20;;;7.40;45.10;;;;;;10370596;28;20234;-73
2020/12/06 14:12:05;;;;;;;25.73;18.57;;;7.40;45.10;;;;;;10317778;28;20270;-73
2020/12/06 14:17:09;;;;;;;24.67;16.73;;;7.40;45.10;;;;;;10324829;28;20241;-73
2020/12/06 14:22:11;;;;;;;22.50;14.93;;;7.40;45.10;;;;;;10313863;28;20246;-73
2020/12/06 14:27:13;;;;;;;22.40;14.60;;;7.40;44.80;;;;;;10352661;28;20229;-79
2020/12/06 14:32:16;;;;;;;26.17;17.47;;;7.40;44.80;;;;;;10322235;28;20235;-78
2020/12/06 14:37:18;;;;;;;23.13;16.80;;;7.40;44.90;;;;;;10342163;28;20585;-79
2020/12/06 14:42:21;;;;;;;23.50;15.43;;;7.40;44.90;;;;;;10348546;28;20244;-79
2020/12/06 14:47:24;;;;;;;28.83;18.27;;;7.40;44.70;;;;;;10328231;28;20790;-79
2020/12/06 14:52:26;;;;;;;25.20;17.40;;;7.40;45.00;;;;;;10335264;28;20222;-78
2020/12/06 14:57:28;;;;;;;25.83;17.93;;;7.30;44.60;;;;;;10340056;28;20230;-79
2020/12/06 15:02:32;;;;;;;26.03;18.20;;;7.30;44.80;;;;;;10340402;28;20633;-78
2020/12/06 15:07:35;;;;;;;23.07;15.70;;;7.40;44.80;;;;;;10341076;28;20233;-78
2020/12/06 15:12:38;;;;;;;27.70;16.53;;;7.40;45.00;;;;;;10333736;28;20326;-74
2020/12/06 15:17:41;;;;;;;28.97;19.13;;;7.40;46.20;;;;;;10316339;28;20718;-72
2020/12/06 15:22:43;;;;;;;27.63;17.50;;;7.40;45.70;;;;;;10319124;28;20274;-72
2020/12/06 15:27:45;;;;;;;28.33;18.57;;;7.50;45.50;;;;;;10310998;28;20227;-72
2020/12/06 15:32:49;;;;;;;28.57;19.10;;;7.50;45.30;;;;;;10316130;28;20597;-72
2020/12/06 15:37:51;;;;;;;29.63;18.33;;;7.50;45.20;;;;;;10308489;28;20642;-72
2020/12/06 15:42:53;;;;;;;29.10;18.83;;;7.50;45.20;;;;;;10304770;28;20255;-76
2020/12/06 15:47:56;;;;;;;32.17;19.97;;;7.50;45.00;;;;;;10335140;28;20227;-76
2020/12/06 15:52:59;;;;;;;26.60;18.47;;;7.50;45.20;;;;;;10329420;28;20654;-72
2020/12/06 15:58:01;;;;;;;27.33;17.80;;;7.60;45.00;;;;;;10321086;28;20238;-75
2020/12/06 16:03:05;;;;;;;24.93;16.97;;;7.50;44.80;;;;;;10309166;28;20219;-73
2020/12/06 16:08:07;;;;;;;28.87;18.93;;;7.50;44.80;;;;;;10316764;28;20239;-72
2020/12/06 16:13:09;;;;;;;29.17;18.27;;;7.50;44.80;;;;;;10315616;28;20231;-73
2020/12/06 16:18:15;;;;;;;29.43;19.17;;;7.60;45.10;;;;;;10323219;28;20605;-77
2020/12/06 16:23:17;;;;;;;28.13;18.63;;;7.60;45.10;;;;;;10318013;28;20231;-77
2020/12/06 16:28:19;;;;;;;28.63;19.47;;;7.60;45.00;;;;;;10328518;28;20227;-77
2020/12/06 16:33:22;;;;;;;30.00;18.80;;;7.60;45.00;;;;;;10309291;28;20230;-77
2020/12/06 16:38:26;;;;;;;29.47;18.27;;;7.70;44.90;;;;;;10320670;28;20983;-77
2020/12/06 16:43:28;;;;;;;28.10;18.07;;;7.60;44.80;;;;;;10323074;28;20634;-77
2020/12/06 16:48:32;;;;;;;34.20;21.77;;;7.70;44.90;;;;;;10310482;28;20232;-77
2020/12/06 16:53:34;;;;;;;29.97;19.23;;;7.70;44.90;;;;;;10306441;28;20230;-77
2020/12/06 16:58:37;;;;;;;31.13;20.07;;;7.70;44.90;;;;;;10327545;28;20237;-76
2020/12/06 17:03:40;;;;;;;30.97;19.70;;;7.70;44.90;;;;;;10320667;28;20226;-77
2020/12/06 17:08:42;;;;;;;33.00;20.87;;;7.60;44.80;;;;;;10334059;28;20719;-77
2020/12/06 17:13:45;;;;;;;33.20;20.47;;;7.60;44.80;;;;;;10323970;28;20280;-77
2020/12/06 17:18:49;;;;;;;33.87;20.37;;;7.50;44.80;;;;;;10306478;28;20333;-72
2020/12/06 17:23:51;;;;;;;43.03;23.47;;;7.50;44.90;;;;;;10297389;28;20312;-76
2020/12/06 17:28:53;;;;;;;33.40;20.67;;;7.40;45.00;;;;;;10302098;28;20318;-72
2020/12/06 17:33:57;;;;;;;32.40;19.83;;;7.40;45.00;;;;;;10305401;28;20246;-72
2020/12/06 17:38:59;;;;;;;33.47;19.90;;;7.40;45.10;;;;;;10301025;28;20235;-72
2020/12/06 17:44:01;;;;;;;37.23;22.17;;;7.50;45.10;;;;;;10310342;28;21004;-74
2020/12/06 17:49:05;;;;;;;31.77;19.10;;;7.50;45.00;;;;;;10302158;28;20613;-72
2020/12/06 17:54:07;;;;;;;36.27;22.73;;;7.50;45.10;;;;;;10298337;28;20230;-73
2020/12/06 17:59:10;;;;;;;40.07;23.53;;;7.40;45.00;;;;;;10309823;28;20237;-76
2020/12/06 18:04:13;;;;;;;34.73;20.53;;;7.40;45.10;;;;;;10319909;28;20834;-76
2020/12/06 18:09:15;;;;;;;36.37;20.50;;;7.50;45.20;;;;;;10313071;28;20723;-75
2020/12/06 18:14:17;;;;;;;37.20;21.10;;;7.50;45.00;;;;;;10290238;28;20235;-72
2020/12/06 18:19:20;;;;;;;33.93;18.43;;;7.50;45.00;;;;;;10307336;28;20235;-73
2020/12/06 18:24:23;;;;;;;37.07;20.73;;;7.50;45.00;;;;;;10311463;28;20235;-73
2020/12/06 18:29:25;;;;;;;33.80;19.50;;;7.50;44.90;;;;;;10312314;28;20249;-72
2020/12/06 18:34:28;;;;;;;28.30;16.37;;;7.40;44.80;;;;;;10312586;28;20223;-71
2020/12/06 18:39:30;;;;;;;39.20;20.60;;;7.40;45.10;;;;;;10311307;28;20249;-72
2020/12/06 18:44:33;;;;;;;33.57;18.63;;;7.40;45.10;;;;;;10310672;28;20234;-71
2020/12/06 18:49:36;;;;;;;37.50;19.43;;;7.40;45.20;;;;;;10301154;28;20241;-71
2020/12/06 18:54:38;;;;;;;40.10;20.93;;;7.40;45.20;;;;;;10310321;28;20223;-75
2020/12/06 18:59:41;;;;;;;31.87;17.97;;;7.40;45.00;;;;;;10314064;28;20583;-75
2020/12/06 19:04:44;;;;;;;34.63;18.57;;;7.40;44.90;;;;;;10322099;28;20234;-74
2020/12/06 19:09:46;;;;;;;35.27;19.07;;;7.30;45.00;;;;;;10315225;28;20665;-74
2020/12/06 19:14:48;;;;;;;31.10;17.23;;;7.30;44.80;;;;;;10326017;28;20226;-74
2020/12/06 19:19:52;;;;;;;40.03;22.00;;;7.30;44.80;;;;;;10335221;28;20234;-74
2020/12/06 19:24:55;;;;;;;49.13;25.00;;;7.30;45.10;;;;;;10333123;28;20223;-74
2020/12/06 19:29:57;;;;;;;32.53;18.57;;;7.30;45.20;;;;;;10323769;28;20236;-74
2020/12/06 19:35:00;;;;;;;29.77;17.43;;;7.30;45.10;;;;;;10322944;28;20227;-74
2020/12/06 19:40:03;;;;;;;27.40;16.83;;;7.30;45.10;;;;;;10332817;28;20219;-74
2020/12/06 19:45:08;;;;;;;27.57;17.33;;;7.30;45.10;;;;;;10339471;28;20234;-73
2020/12/06 19:50:11;;;;;;;29.73;16.80;;;7.20;44.80;;;;;;10322539;28;20246;-74
2020/12/06 19:55:14;;;;;;;30.77;18.00;;;7.20;45.10;;;;;;10309461;28;20227;-74
2020/12/06 20:00:21;;;;;;;27.57;16.57;;;7.10;45.00;;;;;;10322765;28;20224;-75
2020/12/06 20:05:26;;;;;;;29.20;17.97;;;7.20;45.40;;;;;;10332121;28;20497;-75
2020/12/06 20:10:30;;;;;;;25.03;15.33;;;7.20;45.20;;;;;;10314492;28;20322;-75
2020/12/06 20:15:34;;;;;;;26.87;15.87;;;7.20;45.00;;;;;;10319224;28;20255;-74
2020/12/06 20:20:39;;;;;;;23.03;15.77;;;7.20;45.10;;;;;;10319978;28;20913;-75
2020/12/06 20:25:47;;;;;;;26.27;17.47;;;7.20;45.40;;;;;;10331096;28;20241;-75
2020/12/06 20:30:49;;;;;;;26.57;17.13;;;7.20;45.00;;;;;;10322212;28;20322;-75
2020/12/06 20:35:52;;;;;;;30.13;18.67;;;7.20;45.00;;;;;;10318418;28;20238;-75
2020/12/06 20:40:55;;;;;;;27.73;17.13;;;7.20;45.10;;;;;;10303905;28;20235;-71
2020/12/06 20:45:57;;;;;;;29.67;17.40;;;7.20;45.10;;;;;;10318065;28;20229;-75
2020/12/06 20:51:00;;;;;;;25.87;15.90;;;7.20;45.20;;;;;;10331754;28;20238;-77
2020/12/06 20:56:07;;;;;;;23.87;15.83;;;7.20;45.20;;;;;;10316545;28;20695;-76
2020/12/06 21:01:12;;;;;;;22.57;14.77;;;7.20;45.20;;;;;;10317183;28;20610;-74
2020/12/06 21:06:16;;;;;;;23.90;15.53;;;7.20;45.20;;;;;;10319236;28;20813;-74
2020/12/06 21:11:24;;;;;;;21.93;13.90;;;7.20;45.20;;;;;;10296896;28;20235;-74
2020/12/06 21:16:27;;;;;;;22.43;14.43;;;7.20;45.10;;;;;;10310980;28;20223;-74
2020/12/06 21:21:30;;;;;;;22.77;14.37;;;7.20;45.10;;;;;;10304703;28;20294;-73
2020/12/06 21:26:32;;;;;;;20.03;13.60;;;7.10;45.10;;;;;;10316601;28;20234;-74
2020/12/06 21:31:35;;;;;;;18.33;13.23;;;7.10;45.00;;;;;;10339560;28;20226;-74
2020/12/06 21:36:40;;;;;;;19.50;13.80;;;7.10;44.90;;;;;;10324725;28;20227;-71
2020/12/06 21:41:42;;;;;;;19.37;12.50;;;7.10;45.00;;;;;;10314116;28;20214;-74
2020/12/06 21:46:46;;;;;;;20.97;14.00;;;7.10;45.10;;;;;;10329161;28;20695;-75
2020/12/06 21:51:49;;;;;;;21.93;12.93;;;7.00;45.10;;;;;;10321498;28;20589;-75
2020/12/06 21:56:55;;;;;;;21.40;13.37;;;7.00;45.20;;;;;;10330540;28;20313;-75
2020/12/06 22:01:58;;;;;;;23.03;13.60;;;6.90;45.30;;;;;;10340414;28;20692;-75
2020/12/06 22:07:02;;;;;;;20.87;13.40;;;6.80;45.20;;;;;;10312664;28;20233;-75
2020/12/06 22:12:05;;;;;;;23.53;13.70;;;6.80;45.50;;;;;;10328961;28;20839;-75
2020/12/06 22:17:08;;;;;;;23.93;13.47;;;6.80;45.70;;;;;;10344786;28;20310;-74
2020/12/06 22:22:11;;;;;;;19.40;12.47;;;6.70;45.50;;;;;;10327396;28;20235;-69
2020/12/06 22:27:13;;;;;;;24.40;13.67;;;6.70;45.60;;;;;;10316739;28;20238;-69
2020/12/06 22:32:16;;;;;;;18.73;11.27;;;6.70;45.70;;;;;;10326971;28;20307;-69
2020/12/06 22:37:19;;;;;;;18.77;11.60;;;6.70;45.70;;;;;;10313450;28;20242;-70
2020/12/06 22:42:21;;;;;;;18.27;11.40;;;6.70;45.80;;;;;;10315375;28;20712;-69
2020/12/06 22:47:23;;;;;;;21.83;13.07;;;6.80;45.70;;;;;;10329203;28;20269;-69
2020/12/06 22:52:27;;;;;;;18.33;11.97;;;6.80;45.70;;;;;;10289927;28;20652;-69
2020/12/06 22:57:29;;;;;;;19.97;11.80;;;6.70;45.90;;;;;;10305705;28;20282;-69
2020/12/06 23:02:32;;;;;;;18.33;10.70;;;6.70;46.60;;;;;;10309232;28;20231;-69
2020/12/06 23:07:36;;;;;;;15.53;10.67;;;6.70;45.90;;;;;;10310786;28;20234;-69
2020/12/06 23:12:38;;;;;;;15.33;9.93;;;6.70;45.80;;;;;;10307664;28;20703;-69
2020/12/06 23:17:40;;;;;;;12.90;9.17;;;6.70;45.90;;;;;;10316023;28;20230;-69
2020/12/06 23:22:49;;;;;;;13.23;9.40;;;6.70;45.90;;;;;;10312701;28;20238;-74
2020/12/06 23:27:51;;;;;;;13.20;8.97;;;6.60;46.10;;;;;;10310405;28;20223;-70
2020/12/06 23:32:54;;;;;;;14.33;9.00;;;6.70;46.10;;;;;;10320644;28;20219;-69
2020/12/06 23:37:57;;;;;;;11.13;8.00;;;6.60;46.00;;;;;;10321017;28;20227;-69
2020/12/06 23:42:59;;;;;;;11.03;7.83;;;6.60;46.00;;;;;;10323498;28;20309;-69
2020/12/06 23:48:01;;;;;;;10.13;7.20;;;6.70;46.10;;;;;;10321746;28;20773;-69
2020/12/06 23:53:05;;;;;;;10.17;7.13;;;6.70;46.20;;;;;;10327040;28;20230;-70
2020/12/06 23:58:07;;;;;;;8.70;6.53;;;6.70;46.30;;;;;;10339123;28;20230;-73
